createdAt,value
2023-04-12T00:00:11.583Z,69.42
2023-04-12T00:02:39.734Z,68.52
2023-04-12T00:05:09.591Z,68.87
2023-04-12T00:07:38.383Z,69.52
2023-04-12T00:10:07.953Z,71.03
2023-04-12T00:12:34.484Z,70.15
2023-04-12T00:15:01.503Z,68.81
2023-04-12T00:17:28.056Z,70.63
2023-04-12T00:19:54.678Z,70.28
2023-04-12T00:22:21.263Z,70.28
2023-04-12T00:24:47.841Z,72.79
2023-04-12T00:27:14.424Z,71.99
2023-04-12T00:29:41.167Z,71.58
2023-04-12T00:32:07.732Z,72.42
2023-04-12T00:34:34.286Z,72.95
2023-04-12T00:37:02.188Z,72.48
2023-04-12T00:39:29.058Z,71.98
2023-04-12T00:41:56.995Z,72.07
2023-04-12T00:44:24.256Z,71.13
2023-04-12T00:46:51.512Z,72.47
2023-04-12T00:49:18.144Z,71.47
2023-04-12T00:51:45.031Z,71.87
2023-04-12T00:54:12.082Z,71.81
2023-04-12T00:56:40.379Z,72.57
2023-04-12T00:59:07.752Z,71.80
2023-04-12T01:01:34.580Z,71.77
2023-04-12T01:04:04.723Z,72.32
2023-04-12T01:06:40.378Z,72.65
2023-04-12T01:09:16.291Z,72.29
2023-04-12T01:11:56.761Z,73.23
2023-04-12T01:14:51.545Z,72.80
2023-04-12T01:17:21.753Z,71.64
2023-04-12T01:19:54.210Z,71.71
2023-04-12T01:22:33.523Z,71.43
2023-04-12T01:25:35.611Z,71.23
2023-04-12T01:28:07.021Z,70.89
2023-04-12T01:30:34.430Z,70.11
2023-04-12T01:33:03.489Z,69.50
2023-04-12T01:35:33.970Z,70.43
2023-04-12T01:38:03.138Z,69.94
2023-04-12T01:40:31.428Z,69.69
2023-04-12T01:43:08.121Z,69.39
2023-04-12T01:45:35.041Z,69.56
2023-04-12T01:48:02.642Z,69.20
2023-04-12T01:51:05.320Z,68.94
2023-04-12T01:53:43.604Z,69.29
2023-04-12T01:56:11.769Z,68.98
2023-04-12T01:58:40.329Z,69.53
2023-04-12T02:01:08.377Z,69.17
2023-04-12T02:03:37.593Z,69.50
2023-04-12T02:06:05.805Z,69.49
2023-04-12T02:08:33.195Z,69.76
2023-04-12T02:10:59.612Z,70.34
2023-04-12T02:13:26.756Z,69.87
2023-04-12T02:15:54.878Z,70.71
2023-04-12T02:18:21.787Z,70.61
2023-04-12T02:20:50.076Z,71.07
2023-04-12T02:23:16.633Z,71.24
2023-04-12T02:25:44.147Z,71.89
2023-04-12T02:28:10.659Z,71.80
2023-04-12T02:30:38.451Z,71.84
2023-04-12T02:33:06.265Z,72.89
2023-04-12T02:35:32.965Z,73.86
2023-04-12T02:37:59.507Z,74.55
2023-04-12T02:40:26.112Z,75.84
2023-04-12T02:42:52.675Z,78.17
2023-04-12T02:45:19.202Z,79.18
2023-04-12T02:47:45.918Z,80.50
2023-04-12T02:50:12.759Z,79.89
2023-04-12T02:52:39.299Z,80.52
2023-04-12T02:55:06.757Z,81.55
2023-04-12T02:57:33.265Z,82.15
2023-04-12T02:59:59.803Z,81.74
2023-04-12T03:02:26.685Z,83.13
2023-04-12T03:04:54.851Z,82.65
2023-04-12T03:07:22.694Z,82.80
2023-04-12T03:09:50.594Z,85.53
2023-04-12T03:12:17.532Z,86.55
2023-04-12T03:14:44.061Z,87.45
2023-04-12T03:17:11.028Z,87.02
2023-04-12T03:19:37.694Z,88.31
2023-04-12T03:22:04.754Z,88.42
2023-04-12T03:24:34.249Z,88.90
2023-04-12T03:27:04.766Z,89.34
2023-04-12T03:29:32.400Z,89.02
2023-04-12T03:31:59.705Z,89.52
2023-04-12T03:34:33.132Z,89.52
2023-04-12T03:37:01.516Z,88.31
2023-04-12T03:39:28.700Z,89.29
2023-04-12T03:41:55.290Z,88.76
2023-04-12T03:44:22.609Z,88.65
2023-04-12T03:46:49.520Z,87.80
2023-04-12T03:49:16.762Z,87.98
2023-04-12T03:51:43.875Z,88.41
2023-04-12T03:54:15.716Z,89.10
2023-04-12T03:56:43.230Z,91.60
2023-04-12T03:59:11.537Z,90.25
2023-04-12T04:01:38.903Z,90.96
2023-04-12T04:04:06.647Z,92.20
2023-04-12T04:06:34.336Z,92.64
2023-04-12T04:09:01.439Z,92.25
2023-04-12T04:11:28.046Z,92.77
2023-04-12T04:13:54.844Z,93.25
2023-04-12T04:16:21.770Z,93.40
2023-04-12T04:18:48.624Z,92.95
2023-04-12T04:21:15.283Z,92.04
2023-04-12T04:23:45.016Z,91.74
2023-04-12T04:26:12.125Z,90.64
2023-04-12T04:28:39.337Z,90.57
2023-04-12T04:31:06.518Z,91.32
2023-04-12T04:33:33.769Z,90.24
2023-04-12T04:36:00.995Z,88.95
2023-04-12T04:38:28.348Z,89.16
2023-04-12T04:40:55.574Z,89.54
2023-04-12T04:43:22.144Z,88.79
2023-04-12T04:45:54.766Z,88.05
2023-04-12T04:48:21.555Z,90.16
2023-04-12T04:50:48.244Z,89.49
2023-04-12T04:53:18.671Z,87.66
2023-04-12T04:55:45.355Z,86.91
2023-04-12T04:58:12.562Z,87.75
2023-04-12T05:00:39.118Z,86.94
2023-04-12T05:03:05.884Z,83.54
2023-04-12T05:05:32.683Z,81.35
2023-04-12T05:07:59.201Z,80.63
2023-04-12T05:10:25.851Z,81.36
2023-04-12T05:12:52.451Z,80.01
2023-04-12T05:15:19.816Z,78.92
2023-04-12T05:17:46.457Z,76.59
2023-04-12T05:20:13.102Z,72.81
2023-04-12T05:22:39.742Z,74.93
2023-04-12T05:25:06.780Z,73.19
2023-04-12T05:27:33.324Z,70.94
2023-04-12T05:30:00.247Z,71.54
2023-04-12T05:32:27.091Z,68.69
2023-04-12T05:34:53.638Z,68.14
2023-04-12T05:37:20.210Z,68.58
2023-04-12T05:39:46.790Z,67.67
2023-04-12T05:42:13.320Z,68.67
2023-04-12T05:44:39.947Z,68.49
2023-04-12T05:47:06.528Z,65.10
2023-04-12T05:49:33.161Z,63.00
2023-04-12T05:51:59.747Z,63.77
2023-04-12T05:54:26.328Z,62.81
2023-04-12T05:56:55.724Z,62.58
2023-04-12T05:59:22.747Z,63.28
2023-04-12T06:01:49.923Z,62.74
2023-04-12T06:04:16.788Z,62.55
2023-04-12T06:06:43.692Z,61.37
2023-04-12T06:09:11.173Z,61.37
2023-04-12T06:11:39.213Z,59.99
2023-04-12T06:14:06.449Z,60.65
2023-04-12T06:16:33.261Z,61.71
2023-04-12T06:19:00.236Z,60.47
2023-04-12T06:21:27.152Z,61.66
2023-04-12T06:23:53.717Z,60.69
2023-04-12T06:26:20.888Z,60.46
2023-04-12T06:28:47.463Z,58.68
2023-04-12T06:31:16.960Z,60.62
2023-04-12T06:33:43.764Z,60.31
2023-04-12T06:36:11.593Z,61.27
2023-04-12T06:38:39.357Z,60.82
2023-04-12T06:41:06.680Z,61.56
2023-04-12T06:43:33.339Z,60.87
2023-04-12T06:46:02.884Z,59.88
2023-04-12T06:48:30.057Z,59.66
2023-04-12T06:50:56.629Z,61.00
2023-04-12T06:53:23.132Z,60.09
2023-04-12T06:55:49.709Z,61.17
2023-04-12T06:58:16.298Z,62.02
2023-04-12T07:00:42.853Z,60.57
2023-04-12T07:03:10.220Z,62.49
2023-04-12T07:05:39.982Z,60.21
2023-04-12T07:08:08.433Z,60.43
2023-04-12T07:10:36.228Z,61.11
2023-04-12T07:13:07.088Z,61.53
2023-04-12T07:15:33.790Z,60.47
2023-04-12T07:18:00.329Z,59.04
2023-04-12T07:20:27.114Z,58.94
2023-04-12T07:22:53.759Z,58.72
2023-04-12T07:25:20.291Z,57.31
2023-04-12T07:27:46.935Z,57.51
2023-04-12T07:30:13.710Z,57.82
2023-04-12T07:32:40.529Z,58.22
2023-04-12T07:35:07.640Z,57.90
2023-04-12T07:37:34.225Z,57.02
2023-04-12T07:40:00.825Z,55.86
2023-04-12T07:42:27.530Z,55.52
2023-04-12T07:44:54.141Z,57.35
2023-04-12T07:47:20.721Z,56.15
2023-04-12T07:49:47.258Z,56.62
2023-04-12T07:52:13.837Z,56.56
2023-04-12T07:54:40.394Z,57.22
2023-04-12T07:57:08.881Z,57.08
2023-04-12T07:59:36.711Z,57.97
2023-04-12T08:02:03.566Z,57.46
2023-04-12T08:04:30.225Z,56.90
2023-04-12T08:06:56.821Z,55.38
2023-04-12T08:09:24.529Z,56.37
2023-04-12T08:11:51.227Z,57.02
2023-04-12T08:14:17.804Z,57.45
2023-04-12T08:16:44.433Z,56.78
2023-04-12T08:19:11.883Z,58.86
2023-04-12T08:21:38.422Z,57.81
2023-04-12T08:24:05.270Z,55.99
2023-04-12T08:26:31.912Z,56.74
2023-04-12T08:28:58.589Z,57.01
2023-04-12T08:31:25.297Z,56.31
2023-04-12T08:33:51.921Z,57.29
2023-04-12T08:36:19.213Z,57.53
2023-04-12T08:38:46.657Z,57.05
2023-04-12T08:41:14.580Z,57.43
2023-04-12T08:43:45.622Z,57.27
2023-04-12T08:46:15.735Z,56.80
2023-04-12T08:48:47.040Z,56.68
2023-04-12T08:51:15.770Z,57.74
2023-04-12T08:53:42.367Z,60.56
2023-04-12T08:56:13.757Z,61.82
2023-04-12T08:58:42.202Z,64.35
2023-04-12T09:01:15.616Z,64.38
2023-04-12T09:03:43.928Z,62.19
2023-04-12T09:06:11.617Z,63.84
2023-04-12T09:08:50.678Z,62.59
2023-04-12T09:11:25.046Z,60.51
2023-04-12T09:13:52.087Z,58.77
2023-04-12T09:16:20.387Z,56.90
2023-04-12T09:18:51.289Z,59.07
2023-04-12T09:21:18.634Z,53.02
2023-04-12T09:23:45.376Z,51.41
2023-04-12T09:26:31.605Z,50.57
2023-04-12T09:28:58.207Z,50.59
2023-04-12T09:31:24.831Z,49.61
2023-04-12T09:33:51.746Z,47.26
2023-04-12T09:36:19.186Z,47.66
2023-04-12T09:39:05.282Z,47.27
2023-04-12T09:41:33.020Z,48.58
2023-04-12T09:44:00.515Z,47.87
2023-04-12T09:46:27.665Z,47.60
2023-04-12T09:48:59.013Z,48.63
2023-04-12T09:51:36.467Z,45.41
2023-04-12T09:54:05.660Z,46.99
2023-04-12T09:56:35.872Z,45.46
2023-04-12T09:59:09.774Z,46.15
2023-04-12T10:01:39.657Z,48.93
2023-04-12T10:04:08.404Z,43.99
2023-04-12T10:06:37.220Z,44.32
2023-04-12T10:09:05.073Z,43.06
2023-04-12T10:11:32.215Z,43.11
2023-04-12T10:13:59.611Z,44.70
2023-04-12T10:16:27.251Z,40.46
2023-04-12T10:18:54.806Z,41.69
2023-04-12T10:21:21.622Z,41.46
2023-04-12T10:23:49.253Z,41.08
2023-04-12T10:26:17.070Z,40.94
2023-04-12T10:28:47.836Z,40.05
2023-04-12T10:31:30.815Z,39.21
2023-04-12T10:33:57.617Z,40.94
2023-04-12T10:36:56.493Z,40.88
2023-04-12T10:39:40.801Z,38.67
2023-04-12T10:42:20.575Z,40.49
2023-04-12T10:44:47.842Z,37.39
2023-04-12T10:47:14.664Z,39.55
2023-04-12T10:49:41.426Z,37.94
2023-04-12T10:52:12.515Z,39.02
2023-04-12T10:54:39.367Z,37.65
2023-04-12T10:57:06.782Z,38.92
2023-04-12T10:59:52.783Z,40.25
2023-04-12T11:02:19.486Z,37.80
2023-04-12T11:05:05.405Z,38.65
2023-04-12T11:07:43.161Z,37.85
2023-04-12T11:10:17.309Z,37.47
2023-04-12T11:12:50.974Z,38.82
2023-04-12T11:15:18.267Z,35.50
2023-04-12T11:17:54.392Z,37.68
2023-04-12T11:20:21.367Z,35.59
2023-04-12T11:22:49.989Z,35.82
2023-04-12T11:25:18.042Z,34.58
2023-04-12T11:27:52.090Z,35.18
2023-04-12T11:30:19.995Z,36.40
2023-04-12T11:32:47.359Z,37.34
2023-04-12T11:35:17.053Z,36.48
2023-04-12T11:37:44.274Z,34.98
2023-04-12T11:40:11.321Z,34.13
2023-04-12T11:42:40.065Z,33.40
2023-04-12T11:45:14.260Z,32.15
2023-04-12T11:47:46.145Z,32.28
2023-04-12T11:50:12.987Z,30.85
2023-04-12T11:52:41.225Z,30.22
2023-04-12T11:55:11.004Z,31.36
2023-04-12T11:57:39.048Z,33.47
2023-04-12T12:00:07.022Z,34.66
2023-04-12T12:02:41.284Z,31.64
2023-04-12T12:05:13.284Z,33.35
2023-04-12T12:07:40.190Z,30.79
2023-04-12T12:10:07.523Z,31.00
2023-04-12T12:12:33.945Z,31.94
2023-04-12T12:15:02.239Z,30.40
2023-04-12T12:17:29.095Z,31.30
2023-04-12T12:19:58.348Z,34.29
2023-04-12T12:22:24.892Z,33.60
2023-04-12T12:24:55.691Z,34.41
2023-04-12T12:27:33.916Z,31.96
2023-04-12T12:30:02.410Z,32.70
2023-04-12T12:32:37.142Z,32.65
2023-04-12T12:35:09.552Z,31.72
2023-04-12T12:37:36.313Z,31.11
2023-04-12T12:40:23.998Z,31.99
2023-04-12T12:42:55.486Z,33.37
2023-04-12T12:45:24.283Z,31.78
2023-04-12T12:47:53.479Z,30.77
2023-04-12T12:50:24.765Z,35.38
2023-04-12T12:52:52.354Z,32.65
2023-04-12T12:55:21.173Z,31.07
2023-04-12T12:58:02.231Z,31.90
2023-04-12T13:00:33.811Z,32.23
2023-04-12T13:03:00.900Z,28.98
2023-04-12T13:05:27.776Z,32.08
2023-04-12T13:07:54.420Z,30.89
2023-04-12T13:10:21.125Z,30.44
2023-04-12T13:12:47.700Z,29.83
2023-04-12T13:17:43.891Z,30.13
2023-04-12T13:20:10.990Z,30.76
2023-04-12T13:22:37.553Z,29.29
2023-04-12T13:25:04.392Z,30.41
2023-04-12T13:27:30.969Z,31.13
2023-04-12T13:29:57.596Z,33.02
2023-04-12T13:32:24.135Z,31.83
2023-04-12T13:34:50.907Z,32.20
2023-04-12T13:37:17.442Z,31.11
2023-04-12T13:39:44.905Z,31.31
2023-04-12T13:42:11.801Z,31.68
2023-04-12T13:44:38.433Z,30.63
2023-04-12T13:47:05.045Z,29.04
2023-04-12T13:49:31.661Z,28.73
2023-04-12T13:51:58.200Z,30.21
2023-04-12T13:54:25.072Z,31.37
2023-04-12T13:56:51.716Z,29.23
2023-04-12T13:59:18.456Z,27.93
2023-04-12T14:01:45.233Z,30.08
2023-04-12T14:04:11.917Z,29.70
2023-04-12T14:06:38.836Z,30.37
2023-04-12T14:09:08.947Z,29.58
2023-04-12T14:11:47.086Z,30.79
2023-04-12T14:14:16.574Z,31.65
2023-04-12T14:16:44.759Z,30.30
2023-04-12T14:19:11.364Z,31.70
2023-04-12T14:21:38.288Z,29.59
2023-04-12T14:24:04.999Z,31.24
2023-04-12T14:26:32.291Z,30.05
2023-04-12T14:28:59.189Z,30.38
2023-04-12T14:31:26.015Z,31.18
2023-04-12T14:33:53.737Z,30.80
2023-04-12T14:36:20.352Z,30.37
2023-04-12T14:38:46.901Z,29.64
2023-04-12T14:41:14.064Z,30.13
2023-04-12T14:43:40.967Z,30.81
2023-04-12T14:46:07.697Z,30.46
2023-04-12T14:48:34.330Z,31.75
2023-04-12T14:51:00.941Z,30.99
2023-04-12T14:53:27.459Z,28.98
2023-04-12T14:55:54.095Z,28.90
2023-04-12T14:58:20.642Z,30.52
2023-04-12T15:00:49.193Z,30.17
2023-04-12T15:05:43.251Z,28.85
2023-04-12T15:08:09.772Z,30.58
2023-04-12T15:10:37.148Z,30.24
2023-04-12T15:13:03.610Z,30.81
2023-04-12T15:15:30.165Z,30.91
2023-04-12T15:17:56.899Z,28.89
2023-04-12T15:20:23.532Z,29.94
2023-04-12T15:22:50.113Z,29.83
2023-04-12T15:25:16.648Z,30.06
2023-04-12T15:27:44.242Z,30.35
2023-04-12T15:30:13.028Z,30.58
2023-04-12T15:32:42.595Z,31.65
2023-04-12T15:35:25.426Z,31.90
2023-04-12T15:37:55.053Z,31.54
2023-04-12T15:40:22.867Z,32.63
2023-04-12T15:42:49.634Z,31.96
2023-04-12T15:45:16.276Z,33.23
2023-04-12T15:47:43.016Z,31.97
2023-04-12T15:50:10.259Z,30.86
2023-04-12T15:52:36.955Z,29.82
2023-04-12T15:55:05.299Z,31.49
2023-04-12T15:57:32.417Z,29.98
2023-04-12T15:59:59.905Z,30.11
2023-04-12T16:02:27.156Z,31.97
2023-04-12T16:04:56.037Z,32.64
2023-04-12T16:07:22.741Z,32.24
2023-04-12T16:09:49.535Z,31.88
2023-04-12T16:12:16.318Z,32.63
2023-04-12T16:14:43.116Z,32.10
2023-04-12T16:17:10.047Z,31.95
2023-04-12T16:19:36.797Z,33.26
2023-04-12T16:22:03.950Z,32.99
2023-04-12T16:24:31.957Z,31.73
2023-04-12T16:26:59.262Z,32.59
2023-04-12T16:29:25.873Z,33.08
2023-04-12T16:31:52.822Z,33.09
2023-04-12T16:34:21.937Z,33.45
2023-04-12T16:36:49.043Z,34.71
2023-04-12T16:39:16.562Z,34.32
2023-04-12T16:41:43.955Z,33.69
2023-04-12T16:44:10.759Z,33.36
2023-04-12T16:46:37.770Z,33.67
2023-04-12T16:49:04.869Z,35.10
2023-04-12T16:51:36.781Z,35.41
2023-04-12T16:54:04.160Z,34.50
2023-04-12T16:56:30.705Z,35.92
2023-04-12T16:58:59.045Z,34.85
2023-04-12T17:01:25.718Z,33.51
2023-04-12T17:03:52.413Z,34.80
2023-04-12T17:06:19.549Z,35.50
2023-04-12T17:08:46.745Z,34.41
2023-04-12T17:11:13.618Z,34.15
2023-04-12T17:13:40.255Z,36.21
2023-04-12T17:16:07.756Z,35.88
2023-04-12T17:18:34.838Z,36.67
2023-04-12T17:21:01.523Z,36.76
2023-04-12T17:23:28.357Z,36.79
2023-04-12T17:25:56.130Z,37.70
2023-04-12T17:28:22.667Z,37.89
2023-04-12T17:30:49.182Z,37.86
2023-04-12T17:33:18.095Z,37.56
2023-04-12T17:35:45.152Z,34.59
2023-04-12T17:38:11.685Z,37.90
2023-04-12T17:40:38.460Z,39.85
2023-04-12T17:43:05.342Z,40.26
2023-04-12T17:45:33.688Z,40.58
2023-04-12T17:48:00.452Z,39.83
2023-04-12T17:50:27.267Z,41.18
2023-04-12T17:52:55.503Z,38.35
2023-04-12T17:55:26.043Z,39.38
2023-04-12T17:57:56.066Z,38.13
2023-04-12T18:00:24.072Z,38.19
2023-04-12T18:02:51.014Z,40.25
2023-04-12T18:05:18.401Z,41.07
2023-04-12T18:07:45.084Z,41.50
2023-04-12T18:10:15.430Z,40.49
2023-04-12T18:12:44.213Z,39.55
2023-04-12T18:15:11.401Z,41.41
2023-04-12T18:17:39.729Z,41.54
2023-04-12T18:20:10.574Z,42.12
2023-04-12T18:22:38.204Z,42.47
2023-04-12T18:25:08.960Z,42.77
2023-04-12T18:27:35.810Z,43.01
2023-04-12T18:30:03.363Z,42.85
2023-04-12T18:32:30.006Z,42.65
2023-04-12T18:34:56.636Z,41.41
2023-04-12T18:37:23.191Z,42.50
2023-04-12T18:39:53.057Z,45.34
2023-04-12T18:42:20.062Z,46.14
2023-04-12T18:44:46.722Z,46.87
2023-04-12T18:47:13.258Z,46.70
2023-04-12T18:49:39.773Z,45.42
2023-04-12T18:52:07.053Z,45.43
2023-04-12T18:54:33.556Z,44.18
2023-04-12T18:57:01.932Z,44.55
2023-04-12T18:59:28.699Z,44.91
2023-04-12T19:01:55.550Z,45.87
2023-04-12T19:04:22.296Z,44.61
2023-04-12T19:06:48.900Z,45.52
2023-04-12T19:09:15.739Z,45.23
2023-04-12T19:11:42.279Z,46.17
2023-04-12T19:14:08.852Z,47.32
2023-04-12T19:16:36.166Z,48.19
2023-04-12T19:19:02.756Z,48.38
2023-04-12T19:21:29.443Z,48.72
2023-04-12T19:23:56.694Z,50.24
2023-04-12T19:26:23.654Z,49.93
2023-04-12T19:28:55.645Z,51.54
2023-04-12T19:31:23.654Z,50.56
2023-04-12T19:33:50.477Z,51.08
2023-04-12T19:36:17.297Z,51.00
2023-04-12T19:38:44.724Z,50.99
2023-04-12T19:41:11.312Z,49.57
2023-04-12T19:43:37.905Z,50.08
2023-04-12T19:46:04.750Z,52.22
2023-04-12T19:48:32.608Z,50.56
2023-04-12T19:50:59.169Z,52.23
2023-04-12T19:53:25.957Z,53.00
2023-04-12T19:55:57.157Z,53.65
2023-04-12T19:58:24.872Z,53.86
2023-04-12T20:00:52.410Z,54.07
2023-04-12T20:03:19.084Z,55.12
2023-04-12T20:05:46.173Z,55.31
2023-04-12T20:08:12.743Z,55.29
2023-04-12T20:10:39.405Z,53.86
2023-04-12T20:13:09.778Z,53.66
2023-04-12T20:15:39.008Z,53.63
2023-04-12T20:18:06.780Z,53.52
2023-04-12T20:20:33.434Z,53.71
2023-04-12T20:22:59.972Z,54.56
2023-04-12T20:25:27.262Z,54.65
2023-04-12T20:27:54.023Z,55.42
2023-04-12T20:30:21.238Z,53.64
2023-04-12T20:32:54.100Z,53.20
2023-04-12T20:35:21.501Z,52.90
2023-04-12T20:37:50.443Z,51.81
2023-04-12T20:40:17.890Z,52.02
2023-04-12T20:42:45.248Z,51.03
2023-04-12T20:45:12.316Z,52.05
2023-04-12T20:47:38.910Z,54.44
2023-04-12T20:50:06.091Z,56.24
2023-04-12T20:52:32.763Z,58.28
2023-04-12T20:54:59.440Z,57.45
2023-04-12T20:57:27.569Z,55.96
2023-04-12T20:59:55.441Z,57.86
2023-04-12T21:02:31.110Z,57.81
2023-04-12T21:04:59.462Z,58.46
2023-04-12T21:07:26.230Z,57.36
2023-04-12T21:09:52.905Z,57.15
2023-04-12T21:12:19.824Z,56.56
2023-04-12T21:14:50.370Z,55.15
2023-04-12T21:17:17.100Z,55.41
2023-04-12T21:19:44.946Z,55.73
2023-04-12T21:22:11.458Z,59.93
2023-04-12T21:24:40.567Z,58.96
2023-04-12T21:27:08.515Z,61.45
2023-04-12T21:29:41.338Z,62.91
2023-04-12T21:32:09.189Z,61.65
2023-04-12T21:34:35.879Z,60.61
2023-04-12T21:37:04.211Z,60.14
2023-04-12T21:39:31.606Z,59.67
2023-04-12T21:41:58.406Z,59.21
2023-04-12T21:44:25.640Z,59.28
2023-04-12T21:46:52.617Z,59.58
2023-04-12T21:49:19.221Z,59.14
2023-04-12T21:51:49.344Z,59.82
2023-04-12T21:54:16.441Z,58.82
2023-04-12T21:56:43.120Z,59.67
2023-04-12T21:59:09.677Z,60.56
2023-04-12T22:01:37.370Z,60.34
2023-04-12T22:04:04.507Z,60.48
2023-04-12T22:06:31.235Z,60.39
2023-04-12T22:09:02.500Z,61.00
2023-04-12T22:11:30.438Z,61.02
2023-04-12T22:13:57.805Z,61.39
2023-04-12T22:16:24.712Z,64.58
2023-04-12T22:18:51.481Z,66.33
2023-04-12T22:21:18.053Z,65.53
2023-04-12T22:23:45.685Z,62.03
2023-04-12T22:26:12.624Z,61.92
2023-04-12T22:28:39.370Z,61.42
2023-04-12T22:31:08.134Z,64.69
2023-04-12T22:33:36.879Z,64.62
2023-04-12T22:36:06.075Z,64.14
2023-04-12T22:38:38.161Z,64.78
2023-04-12T22:41:05.016Z,66.27
2023-04-12T22:43:42.117Z,66.42
2023-04-12T22:46:16.061Z,67.30
2023-04-12T22:48:48.455Z,68.51
2023-04-12T22:51:15.483Z,68.59
2023-04-12T22:53:43.407Z,67.31
2023-04-12T22:56:11.182Z,67.48
2023-04-12T22:58:40.089Z,67.49
2023-04-12T23:01:07.201Z,65.46
2023-04-12T23:03:33.829Z,65.26
2023-04-12T23:06:00.460Z,65.19
2023-04-12T23:08:28.985Z,66.02
2023-04-12T23:11:02.194Z,70.63
2023-04-12T23:13:35.646Z,71.52
2023-04-12T23:16:03.568Z,69.41
2023-04-12T23:18:30.370Z,68.75
2023-04-12T23:20:56.971Z,68.08
2023-04-12T23:23:26.310Z,68.02
2023-04-12T23:25:52.976Z,67.99
2023-04-12T23:28:21.768Z,67.52
2023-04-12T23:30:50.223Z,67.45
2023-04-12T23:33:18.609Z,67.03
2023-04-12T23:35:47.317Z,67.26
2023-04-12T23:38:23.128Z,67.71
2023-04-12T23:40:56.556Z,67.06
2023-04-12T23:43:24.425Z,67.82
2023-04-12T23:45:54.686Z,69.76
2023-04-12T23:48:21.962Z,73.16
2023-04-12T23:50:49.134Z,72.96
2023-04-12T23:53:16.856Z,73.07
2023-04-12T23:55:47.292Z,74.02
2023-04-12T23:58:14.142Z,73.24
